Estación Meteorológica Peña el Pijo (Robertgarden) [ 03/26/19 14:46:36 CET ]

Fecha Hora Presion(HPa) Temp (°C) Humedad % Rocio (°C) Viento ( m/s) Direccion Lluvia 1Hora(mm) Lluvia 24H(mm) LLuvia Total(mm)
2019-Jan-27 01:01:45 1006.000 4.6 50 -5.0 0.9 WNW     167.31
2019-Jan-27 02:03:15 1005.100 5.9 56 -2.3         167.31
2019-Jan-27 03:02:10 1004.800 7.3 55 -1.2         167.31
2019-Jan-27 04:01:57 1004.400 5.5 59 -1.9         167.31
2019-Jan-27 05:02:06 1003.500 6.9 63 0.3         167.31
2019-Jan-27 06:01:51 1002.600 7.2 63 0.6 1.3 N     167.31
2019-Jan-27 07:01:40 1003.000 7.2 64 0.8         167.31
2019-Jan-27 08:01:40 1003.400 7.0 68 1.5         167.31
2019-Jan-27 09:01:59 1003.500 6.0 69 0.8         167.31
2019-Jan-27 10:01:39 1002.700 6.9 67 1.1 2.1 NW     167.31
2019-Jan-27 11:01:32 1002.900 10.6 55 1.9 2.5 NW     167.31
2019-Jan-27 12:01:33 1003.300 11.7 50 1.5 3.1 NNW     167.31
2019-Jan-27 13:01:39 1003.400 10.9 51 1.2 2.3 WNW     167.31
2019-Jan-27 14:01:42 1002.300 11.8 50 1.7 1.1 WNW     167.31
2019-Jan-27 15:01:38 1002.800 10.9 50 0.9 3.2 WNW     167.31
2019-Jan-27 16:01:21 1003.100 10.1 52 0.9         167.31
2019-Jan-27 17:01:27 1003.200 9.1 56 0.8         167.31
2019-Jan-27 18:01:33 1003.600 7.6 59 0.1 2.2 N     167.31
2019-Jan-27 19:01:26 1003.900 7.2 62 0.4         167.31
2019-Jan-27 20:01:33 1004.200 6.9 60 -0.3         167.31
2019-Jan-27 21:01:44 1004.800 6.1 59 -1.3         167.31
2019-Jan-27 22:01:41 1005.600 5.6 60 -1.6 1.2 N     167.31
2019-Jan-27 23:01:43 1005.400 4.5 64 -1.8         167.31

Temperatura Máxima:11°    Temperatura Mínima:
Presión Máxima:1006.000 Hpa    Presión Mínima:1002.300 Hpa


Volver